Share

Kyiv, Ukraine

Zhuliany (UKKK) Elev 584 ft | 50.40 °N, 30.45 °E | Change Station

Current weather conditions updated 25 minutes ago

Clear
Clear
55 °F
Feels Like 55 °F
N
7
Wind Variable Wind from East
Sunrise 5:54 AM
Sunset 8:00 PM
Moon Waning Gibbous

Today is forecast to be Much Warmer than yesterday. A few morning showers.

Pressure 30.01 in
Visibility -9999.0 miles
Clouds
Dew Point 48 °F
Humidity 77%
Rainfall 0.00 in
Snow Depth Not available.
UV Not available.
Pollen Not available.
Air Quality Not available.
Flu Activity Not available.
METAR UKKK 192300Z 08003MPS CAVOK 13/09 Q1016 08CLRD70 NOSIG

More Conditions Fewer Conditions

Pressure 30.01 in
Visibility -9999.0 miles
Clouds
Dew Point 48 °F
Humidity 77%
Rainfall 0.00 in
Snow Depth Not available.
UV Not available.
Pollen Not available.
Air Quality Not available.
Flu Activity Not available.
METAR UKKK 192300Z 08003MPS CAVOK 13/09 Q1016 08CLRD70 NOSIG

More Conditions Fewer Conditions

10-Day Weather Forecast

Almanac

Astronomy

Apr. 20, 2014 Rise Set
Actual Time 5:54 AM EEST 8:00 PM EEST
Civil Twilight 5:19 AM EEST 8:35 PM EEST
Nautical Twilight 4:36 AM EEST 9:19 PM EEST
Astronomical Twilight 3:46 AM EEST 10:09 PM EEST
Moon 12:35 AM EEST (4/20) 9:40 AM EEST (4/20)
Length of Visible Light 15h 15m
Length of Day
14h 05m
Tomorrow will be 3m 36s longer.
Waning Gibbous, 76% of the Moon is Illuminated
Apr 19
Waning Gibbous
Apr 22
Last Quarter
Apr 29
New
May 6
First Quarter
May 14
Full

Yesterday's Extremes

Country Highs Country Lows

Community

  • Happy Easter!
    Happy Easter!
  • poppy bloom near Mazar-e-Sharif
    poppy bloom near Mazar-e-Sharif
  • Happy Easter WU friends!!!!
    Happy Easter WU friends!!!!
  • Skirting the Horizon
    Skirting the Horizon
  • Piriapolis
    Piriapolis

WunderPhotos

Upload Photos

1,702,962 photos uploaded!

WunderBlogs® & News

Nearby

Snow Depth

Not available.

Coastal Water Temperatures

Place Temperature
No Stations Reporting

Earthquake Activity

City Distance Mag. Time & Date
No recent earthquake activity has been reported nearby.
Minimum magnitude displayed is 2.5.

Nearby Weather Stations

Station Location Temp. Dew Point Humidity Wind Precip. Elev Updated Type
Pechersk, Kyiv 57.3 °F 50 °F 76% NE  at  1.0 mph 0.00 in / hr 502 ft 2:25 AM EEST Rapid Fire
Khlepcha 55.4 °F 50 °F 81% North  at  0.0 mph 0.00 in / hr 500 ft 2:25 AM EEST Rapid Fire

Show More Stations Show Fewer Stations

What do you think?

We're not finished. Please let us know what you like, what you don't like, and what you are still missing.